Time;durP1;ratioP1;P1;durP2;ratioP2;P2;SDS_P1;SDS_P2;PMS_P1;PMS_P2;Temp;Humidity;BMP_temperature;BMP_pressure;BME280_temperature;BME280_humidity;BME280_pressure;Samples;Min_cycle;Max_cycle;Signal;HPM_P1;HPM_P2
2022/06/01 00:00:35;;;;;;;7.95;1.70;;;38.60;15.00;;;;;;5043957;28;20535;-62
2022/06/01 00:03:02;;;;;;;8.98;1.65;;;38.50;15.10;;;;;;5045238;28;20071;-64
2022/06/01 00:05:28;;;;;;;5.38;1.52;;;38.20;13.70;;;;;;5024412;28;20068;-63
2022/06/01 00:07:55;;;;;;;11.10;1.77;;;38.00;13.90;;;;;;5043434;28;20029;-64
2022/06/01 00:10:22;;;;;;;13.50;2.08;;;38.10;14.30;;;;;;5042973;28;20290;-64
2022/06/01 00:12:48;;;;;;;13.50;2.00;;;38.20;14.20;;;;;;5045125;28;20028;-64
2022/06/01 00:15:17;;;;;;;13.93;1.92;;;38.20;14.40;;;;;;5044147;28;20800;-67
2022/06/01 00:17:43;;;;;;;11.63;2.08;;;38.20;14.60;;;;;;5040980;28;20059;-66
2022/06/01 00:20:10;;;;;;;19.83;2.42;;;38.20;15.20;;;;;;5043650;28;20070;-65
2022/06/01 00:22:37;;;;;;;13.80;2.05;;;38.10;14.60;;;;;;5045265;28;20471;-64
2022/06/01 00:25:07;;;;;;;7.25;1.92;;;38.00;14.40;;;;;;5042286;28;20415;-64
2022/06/01 00:27:36;;;;;;;9.43;1.90;;;38.00;14.60;;;;;;5032479;28;20407;-67
2022/06/01 00:30:04;;;;;;;7.63;1.73;;;38.10;14.60;;;;;;5045534;28;20038;-66
2022/06/01 00:32:31;;;;;;;8.27;2.28;;;38.00;14.10;;;;;;5046160;28;20035;-63
2022/06/01 00:35:00;;;;;;;7.80;1.83;;;37.90;14.50;;;;;;5028925;28;20025;-67
2022/06/01 00:37:27;;;;;;;7.75;1.63;;;37.70;14.20;;;;;;5039571;28;20114;-62
2022/06/01 00:39:53;;;;;;;7.25;1.60;;;37.80;14.10;;;;;;5043570;28;20025;-68
2022/06/01 00:42:29;;;;;;;7.78;1.60;;;37.70;13.60;;;;;;5033579;28;20029;-65
2022/06/01 00:44:56;;;;;;;3.83;1.52;;;37.70;14.30;;;;;;5038131;28;20029;-65
2022/06/01 00:47:25;;;;;;;4.95;1.42;;;37.50;14.40;;;;;;5035489;28;20030;-66
2022/06/01 00:50:14;;;;;;;7.40;1.73;;;37.50;14.30;;;;;;5036939;28;20118;-68
2022/06/01 00:52:46;;;;;;;8.18;1.95;;;37.20;14.20;;;;;;5041600;28;20533;-66
2022/06/01 00:55:18;;;;;;;9.32;2.03;;;37.10;14.50;;;;;;5040730;28;20093;-68
2022/06/01 00:57:48;;;;;;;87.70;5.43;;;37.10;14.80;;;;;;5043814;28;20063;-66
2022/06/01 01:00:22;;;;;;;13.88;2.00;;;37.00;15.50;;;;;;5041269;28;20034;-67
2022/06/01 01:02:50;;;;;;;8.88;1.92;;;36.90;14.70;;;;;;5044227;28;20507;-68
2022/06/01 01:05:18;;;;;;;14.63;2.15;;;36.90;15.00;;;;;;5041475;28;20028;-66
2022/06/01 01:07:45;;;;;;;7.70;1.27;;;36.80;15.00;;;;;;5047287;28;20036;-66
2022/06/01 01:10:14;;;;;;;31.08;2.80;;;36.80;14.60;;;;;;5044026;28;20088;-64
2022/06/01 01:12:57;;;;;;;5.78;1.75;;;36.70;14.30;;;;;;5046735;28;20125;-68
2022/06/01 01:15:30;;;;;;;10.25;2.03;;;36.60;14.20;;;;;;5035778;28;20135;-69
2022/06/01 01:17:58;;;;;;;4.43;1.50;;;36.50;14.40;;;;;;5035487;28;20062;-68
2022/06/01 01:20:27;;;;;;;3.35;1.40;;;36.40;13.90;;;;;;5005519;28;20073;-69
2022/06/01 01:23:18;;;;;;;9.70;1.58;;;36.30;14.10;;;;;;5021526;28;20089;-69
2022/06/01 01:25:44;;;;;;;12.38;1.67;;;36.40;14.10;;;;;;5039937;28;20055;-66
2022/06/01 01:28:11;;;;;;;7.75;2.47;;;36.30;14.30;;;;;;5042313;28;20043;-69
2022/06/01 01:30:40;;;;;;;9.18;2.53;;;36.30;13.90;;;;;;5036589;28;20039;-68
2022/06/01 01:33:27;;;;;;;7.10;2.00;;;36.20;14.30;;;;;;5044655;28;20047;-69
2022/06/01 01:35:56;;;;;;;9.65;2.10;;;36.00;13.90;;;;;;5041653;28;20043;-68
2022/06/01 01:38:27;;;;;;;11.15;2.20;;;35.90;14.50;;;;;;5025826;28;20330;-68
2022/06/01 01:41:07;;;;;;;9.93;1.80;;;35.80;14.50;;;;;;5041934;28;20034;-72
2022/06/01 01:43:48;;;;;;;10.50;2.20;;;35.70;14.20;;;;;;5023047;28;20038;-68
2022/06/01 01:46:15;;;;;;;8.82;1.92;;;35.70;14.20;;;;;;5039168;28;20431;-69
2022/06/01 01:48:41;;;;;;;4.03;1.73;;;35.70;14.30;;;;;;5043359;28;20521;-73
2022/06/01 01:51:08;;;;;;;18.65;2.30;;;35.60;14.60;;;;;;5033230;28;20112;-69
2022/06/01 01:53:35;;;;;;;15.98;1.90;;;35.50;14.10;;;;;;5021777;28;20062;-66
2022/06/01 01:56:21;;;;;;;7.22;1.67;;;35.40;14.00;;;;;;5019781;28;20036;-68
2022/06/01 01:59:32;;;;;;;15.27;2.13;;;35.30;14.00;;;;;;5033525;28;20078;-67
2022/06/01 02:02:15;;;;;;;9.52;1.70;;;35.10;14.10;;;;;;5034505;28;20047;-70
2022/06/01 02:07:45;;;;;;;12.82;2.05;;;34.90;14.00;;;;;;5039093;28;20045;-68
2022/06/01 02:12:57;;;;;;;11.55;1.83;;;34.80;14.70;;;;;;5042013;28;20074;-67
2022/06/01 02:15:33;;;;;;;14.48;2.33;;;34.60;14.60;;;;;;5039482;28;20063;-67
2022/06/01 02:18:08;;;;;;;25.98;2.75;;;34.50;14.70;;;;;;5037650;28;20404;-66
2022/06/01 02:20:48;;;;;;;16.63;2.10;;;34.40;15.60;;;;;;5020160;28;20070;-65
2022/06/01 02:23:16;;;;;;;24.75;2.92;;;34.40;15.50;;;;;;5033807;28;20075;-64
2022/06/01 02:25:46;;;;;;;17.00;2.45;;;34.30;15.90;;;;;;5024088;28;20062;-68
2022/06/01 02:28:12;;;;;;;12.07;2.40;;;34.20;17.40;;;;;;5037143;28;20447;-64
2022/06/01 02:30:42;;;;;;;9.80;2.03;;;34.10;15.70;;;;;;5023815;28;20037;-65
2022/06/01 02:33:19;;;;;;;14.02;2.13;;;34.10;15.50;;;;;;5048875;28;20042;-66
2022/06/01 02:35:49;;;;;;;19.98;3.33;;;34.00;16.00;;;;;;5025347;28;20042;-64
2022/06/01 02:38:25;;;;;;;16.73;2.67;;;33.90;16.10;;;;;;5032659;28;20071;-61
2022/06/01 02:40:53;;;;;;;21.52;3.13;;;33.80;15.90;;;;;;5028167;28;20099;-68
2022/06/01 02:43:20;;;;;;;25.15;3.17;;;33.80;16.30;;;;;;5043098;28;20564;-66
2022/06/01 02:45:46;;;;;;;15.63;3.17;;;33.70;17.30;;;;;;5039523;28;20075;-64
2022/06/01 02:48:12;;;;;;;15.77;1.95;;;33.60;16.90;;;;;;5045086;28;20078;-69
2022/06/01 02:50:39;;;;;;;28.17;3.20;;;33.50;16.40;;;;;;5035618;28;20052;-62
2022/06/01 02:53:06;;;;;;;27.73;3.22;;;33.40;16.40;;;;;;5041770;28;20176;-64
2022/06/01 02:55:33;;;;;;;21.67;3.75;;;33.30;17.10;;;;;;5040253;28;20456;-63
2022/06/01 02:58:00;;;;;;;35.20;4.57;;;33.20;16.70;;;;;;5023045;28;20551;-65
2022/06/01 03:00:35;;;;;;;76.30;7.82;;;33.10;17.20;;;;;;5038060;28;20079;-65
2022/06/01 03:03:03;;;;;;;33.88;3.78;;;33.00;17.80;;;;;;5039061;28;20047;-66
2022/06/01 03:05:33;;;;;;;19.60;3.22;;;32.90;17.80;;;;;;5036744;28;20052;-63
2022/06/01 03:08:01;;;;;;;22.00;3.35;;;32.90;17.90;;;;;;5035205;28;20079;-64
2022/06/01 03:10:28;;;;;;;20.15;2.60;;;32.80;18.90;;;;;;5036839;28;20053;-65
2022/06/01 03:12:55;;;;;;;22.27;2.58;;;32.70;19.20;;;;;;5034313;28;20068;-66
2022/06/01 03:15:24;;;;;;;24.77;2.70;;;32.60;20.60;;;;;;5035915;28;20080;-69
2022/06/01 03:17:50;;;;;;;23.88;2.65;;;32.40;20.90;;;;;;5022725;28;20519;-66
2022/06/01 03:20:20;;;;;;;22.88;3.13;;;32.30;21.50;;;;;;5031219;28;20085;-70
2022/06/01 03:22:46;;;;;;;17.30;3.17;;;32.10;22.00;;;;;;5035021;28;20051;-68
2022/06/01 03:25:17;;;;;;;18.17;2.55;;;32.00;22.40;;;;;;5037058;28;20076;-69
2022/06/01 03:27:45;;;;;;;26.10;2.45;;;31.90;22.70;;;;;;5039958;28;20066;-70
2022/06/01 03:30:18;;;;;;;27.10;3.22;;;31.90;23.10;;;;;;5041732;28;20055;-69
2022/06/01 03:32:46;;;;;;;29.10;3.80;;;31.80;22.90;;;;;;5044459;28;20131;-70
2022/06/01 03:35:14;;;;;;;23.73;3.08;;;31.80;23.30;;;;;;5047315;28;20436;-69
2022/06/01 03:37:41;;;;;;;27.77;3.88;;;31.70;23.80;;;;;;5045840;28;20079;-69
2022/06/01 03:40:09;;;;;;;28.90;3.85;;;31.60;23.70;;;;;;5046589;28;20046;-70
2022/06/01 03:42:36;;;;;;;14.38;2.72;;;31.50;23.80;;;;;;5049398;28;20047;-70
2022/06/01 03:47:48;;;;;;;23.20;3.25;;;31.30;24.10;;;;;;5049949;28;20638;-70
2022/06/01 03:50:16;;;;;;;22.38;2.70;;;31.20;24.20;;;;;;5033434;28;20077;-70
2022/06/01 03:52:43;;;;;;;36.60;3.38;;;31.10;24.00;;;;;;5032714;28;20126;-67
2022/06/01 03:55:09;;;;;;;18.77;3.20;;;31.00;24.00;;;;;;5048736;28;20058;-71
2022/06/01 03:57:36;;;;;;;22.77;3.95;;;30.80;24.10;;;;;;5054566;28;20087;-68
2022/06/01 04:00:04;;;;;;;25.73;3.80;;;30.70;24.00;;;;;;5053072;28;20151;-71
2022/06/01 04:02:31;;;;;;;26.88;3.08;;;30.60;24.20;;;;;;5038495;28;20075;-67
2022/06/01 04:05:01;;;;;;;26.17;3.85;;;30.40;24.10;;;;;;5046751;28;20542;-69
2022/06/01 04:07:27;;;;;;;26.40;3.47;;;30.40;24.30;;;;;;5049347;28;20064;-69
2022/06/01 04:09:54;;;;;;;20.33;3.63;;;30.30;24.10;;;;;;5049147;28;20134;-70
2022/06/01 04:12:20;;;;;;;29.27;3.80;;;30.20;24.10;;;;;;5045622;28;20063;-69
2022/06/01 04:14:47;;;;;;;27.92;3.97;;;30.20;24.30;;;;;;5049203;28;20159;-69
2022/06/01 04:17:13;;;;;;;31.25;4.00;;;30.20;24.80;;;;;;5048275;28;20067;-68
2022/06/01 04:19:40;;;;;;;43.60;4.68;;;30.10;24.40;;;;;;5049655;28;20468;-70
2022/06/01 04:22:08;;;;;;;23.65;5.05;;;30.10;24.50;;;;;;5033230;28;20108;-68
2022/06/01 04:24:35;;;;;;;25.75;4.32;;;29.80;24.60;;;;;;5032746;28;20096;-68
2022/06/01 04:27:01;;;;;;;29.70;4.05;;;29.80;24.80;;;;;;5040699;28;20064;-68
2022/06/01 04:29:28;;;;;;;23.65;3.67;;;29.80;24.80;;;;;;5048571;28;20537;-67
2022/06/01 04:32:13;;;;;;;24.13;3.63;;;29.80;24.80;;;;;;5047258;28;20061;-68
2022/06/01 04:34:39;;;;;;;22.33;4.25;;;29.70;24.90;;;;;;5046894;28;20096;-64
2022/06/01 04:37:06;;;;;;;24.23;3.70;;;29.60;25.20;;;;;;5045548;28;20072;-64
2022/06/01 04:39:33;;;;;;;21.75;3.13;;;29.50;25.20;;;;;;5046053;28;20092;-63
2022/06/01 04:41:59;;;;;;;28.88;3.97;;;29.50;25.40;;;;;;5046114;28;20062;-64
2022/06/01 04:44:26;;;;;;;20.83;4.18;;;29.40;25.30;;;;;;5031827;28;20204;-63
2022/06/01 04:46:52;;;;;;;19.02;3.53;;;29.40;25.30;;;;;;5029631;28;20614;-64
2022/06/01 04:49:19;;;;;;;23.88;4.38;;;29.30;25.60;;;;;;5048095;28;20070;-64
2022/06/01 04:51:45;;;;;;;35.35;4.60;;;29.30;25.50;;;;;;5031377;28;20150;-63
2022/06/01 04:54:11;;;;;;;22.58;4.13;;;29.20;25.80;;;;;;5049982;28;20072;-63
2022/06/01 04:56:38;;;;;;;26.60;4.03;;;29.20;26.10;;;;;;5045959;28;20110;-64
2022/06/01 04:59:04;;;;;;;28.25;4.03;;;29.10;26.10;;;;;;5044961;28;20576;-64
2022/06/01 05:01:31;;;;;;;26.45;5.00;;;29.10;26.30;;;;;;5046513;28;20465;-63
2022/06/01 05:03:57;;;;;;;37.35;4.72;;;29.10;26.60;;;;;;5047955;28;20063;-65
2022/06/01 05:06:24;;;;;;;25.10;4.60;;;29.00;26.70;;;;;;5047560;28;20168;-64
2022/06/01 05:08:51;;;;;;;43.80;5.05;;;29.00;26.90;;;;;;5031440;28;20071;-64
2022/06/01 05:11:19;;;;;;;38.42;5.60;;;28.90;26.90;;;;;;5046808;28;20070;-64
2022/06/01 05:13:46;;;;;;;39.58;6.45;;;28.80;26.80;;;;;;5048428;28;20182;-64
2022/06/01 05:16:13;;;;;;;43.50;6.47;;;28.70;26.70;;;;;;5030196;28;20191;-65
2022/06/01 05:18:39;;;;;;;42.42;5.68;;;28.70;26.70;;;;;;5047732;28;20080;-63
2022/06/01 05:21:06;;;;;;;47.40;6.00;;;28.70;26.80;;;;;;5045615;28;20087;-65
2022/06/01 05:23:32;;;;;;;46.33;6.25;;;28.60;26.70;;;;;;5047454;28;20069;-65
2022/06/01 05:25:59;;;;;;;47.80;6.38;;;28.60;26.60;;;;;;5033024;28;20082;-66
2022/06/01 05:28:30;;;;;;;38.83;6.50;;;28.60;27.10;;;;;;5044425;28;20091;-63
2022/06/01 05:31:02;;;;;;;40.40;6.30;;;28.60;26.90;;;;;;5048569;28;20081;-64
2022/06/01 05:33:28;;;;;;;41.30;6.95;;;28.50;27.00;;;;;;5031238;28;20527;-63
2022/06/01 05:35:56;;;;;;;48.25;7.38;;;28.40;26.90;;;;;;5046318;28;20515;-67
2022/06/01 05:38:23;;;;;;;60.15;25.02;;;28.40;27.00;;;;;;5048016;28;20085;-68
2022/06/01 05:40:49;;;;;;;78.50;31.65;;;28.40;27.40;;;;;;5047881;28;20120;-70
2022/06/01 05:43:17;;;;;;;80.07;40.22;;;28.40;27.70;;;;;;5048625;28;20074;-65
2022/06/01 05:45:44;;;;;;;59.78;11.93;;;28.40;27.60;;;;;;5047751;28;20097;-63
2022/06/01 05:48:13;;;;;;;58.42;9.18;;;28.30;27.70;;;;;;5047322;28;20530;-66
2022/06/01 05:50:40;;;;;;;38.40;8.00;;;28.30;27.80;;;;;;5032212;28;20069;-65
2022/06/01 05:53:07;;;;;;;45.05;8.55;;;28.20;28.00;;;;;;5047632;28;20156;-65
2022/06/01 05:55:35;;;;;;;54.03;9.13;;;28.20;28.00;;;;;;5048172;28;20496;-66
2022/06/01 05:58:10;;;;;;;50.25;7.60;;;28.20;28.20;;;;;;5031145;28;20217;-66
2022/06/01 06:00:36;;;;;;;43.35;7.63;;;28.20;28.20;;;;;;5043021;28;20086;-65
2022/06/01 06:03:02;;;;;;;42.97;7.72;;;28.20;28.50;;;;;;5025163;28;20104;-65
2022/06/01 06:08:14;;;;;;;56.88;8.88;;;28.10;28.20;;;;;;5041486;28;20178;-65
2022/06/01 06:10:41;;;;;;;42.38;8.52;;;28.00;28.50;;;;;;5043796;28;20443;-65
2022/06/01 06:13:07;;;;;;;51.33;8.30;;;28.00;29.20;;;;;;5026153;28;20072;-66
2022/06/01 06:15:33;;;;;;;40.53;7.13;;;28.00;29.20;;;;;;5040599;28;20074;-64
2022/06/01 06:18:00;;;;;;;68.63;9.05;;;27.90;28.70;;;;;;5042221;28;20130;-65
2022/06/01 06:20:26;;;;;;;51.45;8.40;;;27.90;28.80;;;;;;5042454;28;20090;-65
2022/06/01 06:22:52;;;;;;;49.40;8.95;;;27.90;29.10;;;;;;5042433;28;20086;-64
2022/06/01 06:25:19;;;;;;;44.85;8.05;;;27.90;29.50;;;;;;5041645;28;20070;-64
2022/06/01 06:27:45;;;;;;;43.15;8.30;;;27.90;29.30;;;;;;5007741;28;20085;-64
2022/06/01 06:30:12;;;;;;;38.25;8.20;;;27.80;29.10;;;;;;5040873;28;20445;-64
2022/06/01 06:32:39;;;;;;;70.50;10.52;;;27.70;29.10;;;;;;5038471;28;20540;-63
2022/06/01 06:35:06;;;;;;;69.60;11.07;;;27.70;29.40;;;;;;5041352;28;20124;-64
2022/06/01 06:37:32;;;;;;;59.58;10.68;;;27.70;29.60;;;;;;5041231;28;20070;-64
2022/06/01 06:39:58;;;;;;;59.25;10.30;;;27.60;29.70;;;;;;5041739;28;20101;-65
2022/06/01 06:42:25;;;;;;;54.08;10.88;;;27.60;29.50;;;;;;5042613;28;20092;-64
2022/06/01 06:44:51;;;;;;;60.75;10.90;;;27.60;30.20;;;;;;5040950;28;20104;-64
2022/06/01 06:47:19;;;;;;;40.42;11.02;;;27.60;31.10;;;;;;5037793;28;20602;-64
2022/06/01 06:49:45;;;;;;;56.50;11.40;;;27.60;30.50;;;;;;5040847;28;20105;-65
2022/06/01 06:52:12;;;;;;;57.13;11.95;;;27.40;30.20;;;;;;5041054;28;20106;-63
2022/06/01 06:54:38;;;;;;;55.58;10.95;;;27.40;30.90;;;;;;5043417;28;20136;-63
2022/06/01 06:57:05;;;;;;;63.67;12.13;;;27.40;30.60;;;;;;5042406;28;20587;-64
2022/06/01 06:59:32;;;;;;;65.50;11.35;;;27.30;30.60;;;;;;5041876;28;20095;-63
2022/06/01 07:01:58;;;;;;;59.58;11.70;;;27.30;30.80;;;;;;5042308;28;20170;-64
2022/06/01 07:04:25;;;;;;;57.53;12.00;;;27.30;30.90;;;;;;5025709;28;20101;-64
2022/06/01 07:06:51;;;;;;;42.08;10.68;;;27.20;31.60;;;;;;5039861;28;20070;-64
2022/06/01 07:09:18;;;;;;;61.03;12.00;;;27.20;31.00;;;;;;5041557;28;20641;-64
2022/06/01 07:11:44;;;;;;;60.88;12.30;;;27.10;30.60;;;;;;5039994;28;20119;-63
2022/06/01 07:14:10;;;;;;;68.72;12.45;;;27.10;31.60;;;;;;5039960;28;20081;-63
2022/06/01 07:16:37;;;;;;;53.67;11.15;;;27.10;30.60;;;;;;5043621;28;20530;-63
2022/06/01 07:19:05;;;;;;;55.35;12.27;;;27.10;30.80;;;;;;5042155;28;20090;-64
2022/06/01 07:21:36;;;;;;;74.28;12.85;;;26.90;30.50;;;;;;5046256;28;20090;-63
2022/06/01 07:24:04;;;;;;;48.97;10.77;;;27.00;30.70;;;;;;5044433;28;20554;-63
2022/06/01 07:26:38;;;;;;;66.07;11.98;;;27.00;30.60;;;;;;5042089;28;20157;-63
2022/06/01 07:29:06;;;;;;;66.85;12.80;;;27.00;31.10;;;;;;5041993;28;20067;-63
2022/06/01 07:31:32;;;;;;;57.35;11.40;;;26.90;31.00;;;;;;5044542;28;20079;-66
2022/06/01 07:33:59;;;;;;;59.63;11.15;;;26.90;31.30;;;;;;5041564;28;20524;-62
2022/06/01 07:36:28;;;;;;;57.83;11.63;;;26.90;31.90;;;;;;5042564;28;20122;-62
2022/06/01 07:44:39;;;;;;;64.93;13.20;;;26.80;31.40;;;;;;5043592;28;20095;-64
2022/06/01 07:47:06;;;;;;;63.22;12.20;;;26.80;31.50;;;;;;5043796;28;20167;-64
2022/06/01 07:49:33;;;;;;;62.80;13.13;;;26.80;32.10;;;;;;5046696;28;20072;-65
2022/06/01 07:51:59;;;;;;;81.00;13.93;;;26.70;31.80;;;;;;5046101;28;20194;-64
2022/06/01 07:54:26;;;;;;;59.70;12.52;;;26.70;31.40;;;;;;5028358;28;20182;-63
2022/06/01 07:56:52;;;;;;;93.43;13.98;;;26.60;30.90;;;;;;5042800;28;20093;-64
2022/06/01 07:59:19;;;;;;;83.03;14.32;;;26.60;30.90;;;;;;5043493;28;20500;-63
2022/06/01 08:01:45;;;;;;;64.07;12.35;;;26.60;30.30;;;;;;5046057;28;20110;-66
2022/06/01 08:04:13;;;;;;;45.67;10.75;;;26.60;30.30;;;;;;5028721;28;20064;-64
2022/06/01 08:06:39;;;;;;;51.03;11.35;;;26.60;30.30;;;;;;5044042;28;20491;-64
2022/06/01 08:09:07;;;;;;;55.70;10.18;;;26.50;29.90;;;;;;5046983;28;20130;-64
2022/06/01 08:14:19;;;;;;;45.65;9.50;;;26.60;30.40;;;;;;5044774;28;20089;-64
2022/06/01 08:16:46;;;;;;;40.17;8.57;;;26.60;29.70;;;;;;5041462;28;20081;-64
2022/06/01 08:19:14;;;;;;;44.78;8.95;;;26.60;29.80;;;;;;5044596;28;20130;-64
2022/06/01 08:21:41;;;;;;;39.40;8.90;;;26.60;29.60;;;;;;5041658;28;20544;-64
2022/06/01 08:24:08;;;;;;;49.08;8.95;;;26.60;29.90;;;;;;5041246;28;20103;-63
2022/06/01 08:26:35;;;;;;;49.42;9.27;;;26.60;29.80;;;;;;5026512;28;20076;-62
2022/06/01 08:29:02;;;;;;;37.65;8.70;;;26.60;29.60;;;;;;5042463;28;20094;-64
2022/06/01 08:31:30;;;;;;;41.60;8.73;;;26.60;29.70;;;;;;5044021;28;20514;-64
2022/06/01 08:33:58;;;;;;;41.08;8.52;;;26.60;29.80;;;;;;5043675;28;20087;-63
2022/06/01 08:36:24;;;;;;;40.05;8.23;;;26.70;29.90;;;;;;5040052;28;20094;-63
2022/06/01 08:38:51;;;;;;;43.28;8.45;;;26.60;29.90;;;;;;5043482;28;20084;-64
2022/06/01 08:41:22;;;;;;;47.80;8.98;;;26.60;29.80;;;;;;5024279;28;20074;-64
2022/06/01 08:43:59;;;;;;;47.17;8.93;;;26.60;30.00;;;;;;5043755;28;20079;-64
2022/06/01 08:46:26;;;;;;;38.28;7.72;;;26.60;30.00;;;;;;5042060;28;20078;-64
2022/06/01 08:48:59;;;;;;;38.38;8.50;;;26.50;30.00;;;;;;5026692;28;20075;-66
2022/06/01 08:51:28;;;;;;;32.22;7.28;;;26.50;30.00;;;;;;5025031;28;20201;-64
2022/06/01 08:53:57;;;;;;;39.95;7.93;;;26.50;30.00;;;;;;5026026;28;20100;-64
2022/06/01 08:56:43;;;;;;;39.85;7.50;;;26.50;30.00;;;;;;5040426;28;20513;-63
2022/06/01 08:59:18;;;;;;;31.55;7.22;;;26.50;30.30;;;;;;5041314;28;20095;-63
2022/06/01 09:01:53;;;;;;;39.55;8.25;;;26.50;30.20;;;;;;5023947;28;20543;-64
2022/06/01 09:04:28;;;;;;;30.90;6.75;;;26.50;30.10;;;;;;5042287;28;20396;-64
2022/06/01 09:07:21;;;;;;;36.25;7.15;;;26.50;30.10;;;;;;5043430;28;21179;-64
2022/06/01 09:10:14;;;;;;;36.53;6.45;;;26.60;30.20;;;;;;5040520;28;20591;-64
2022/06/01 09:12:42;;;;;;;30.05;6.13;;;26.60;30.60;;;;;;5027142;28;20089;-64
2022/06/01 09:15:23;;;;;;;30.55;6.90;;;26.60;30.40;;;;;;5041964;28;20164;-64
2022/06/01 09:17:50;;;;;;;29.05;6.47;;;26.60;30.60;;;;;;5022748;28;20567;-65
2022/06/01 09:23:09;;;;;;;25.80;6.65;;;26.50;31.10;;;;;;5042603;28;20124;-65
2022/06/01 09:25:36;;;;;;;28.65;5.80;;;26.60;31.60;;;;;;5040526;28;20077;-64
2022/06/01 09:28:26;;;;;;;26.27;5.88;;;26.60;32.50;;;;;;5043802;28;20091;-62
2022/06/01 09:31:02;;;;;;;35.92;5.63;;;26.60;33.10;;;;;;5037664;28;20102;-63
2022/06/01 09:33:34;;;;;;;24.10;5.40;;;26.60;33.20;;;;;;5041760;28;20107;-63
2022/06/01 09:36:07;;;;;;;24.17;4.90;;;26.50;32.50;;;;;;5043502;28;20481;-63
2022/06/01 09:38:36;;;;;;;30.10;5.30;;;26.50;33.20;;;;;;5044303;28;20089;-64
2022/06/01 09:41:40;;;;;;;27.88;4.82;;;26.40;33.50;;;;;;5041157;28;20561;-64
2022/06/01 09:44:10;;;;;;;29.88;5.70;;;26.40;33.50;;;;;;4991882;28;20080;-65
2022/06/01 09:46:55;;;;;;;25.60;5.50;;;26.40;34.30;;;;;;5011473;28;20079;-65
2022/06/01 09:49:29;;;;;;;19.55;4.65;;;26.40;34.10;;;;;;5008339;28;20108;-65
2022/06/01 09:52:02;;;;;;;23.33;4.95;;;26.20;33.60;;;;;;4994555;28;20646;-65
2022/06/01 09:54:36;;;;;;;19.92;4.88;;;26.20;33.50;;;;;;4981143;28;20107;-63
2022/06/01 09:57:32;;;;;;;27.95;5.72;;;26.20;33.40;;;;;;4995928;28;20080;-64
2022/06/01 10:08:21;;;;;;;18.35;4.68;;;26.00;34.20;;;;;;5014693;28;20167;-62
2022/06/01 10:11:20;;;;;;;27.08;5.65;;;26.00;34.30;;;;;;4999798;28;20163;-64
2022/06/01 10:13:52;;;;;;;19.38;5.15;;;25.90;34.20;;;;;;4995129;28;20081;-62
2022/06/01 10:16:45;;;;;;;23.63;5.05;;;25.90;33.90;;;;;;5009278;28;20080;-64
2022/06/01 10:19:15;;;;;;;24.35;5.20;;;25.80;34.10;;;;;;5003436;28;20124;-63
2022/06/01 10:21:58;;;;;;;22.92;5.50;;;25.70;34.00;;;;;;5041846;28;20115;-64
2022/06/01 10:24:36;;;;;;;25.98;5.00;;;25.70;34.10;;;;;;5039239;28;20096;-63
2022/06/01 10:27:04;;;;;;;27.27;4.95;;;25.60;34.00;;;;;;5039035;28;20072;-63
2022/06/01 10:29:40;;;;;;;15.82;5.05;;;25.50;34.20;;;;;;5041653;28;20089;-63
2022/06/01 10:32:10;;;;;;;20.88;5.70;;;25.40;34.10;;;;;;5042536;28;20068;-65
2022/06/01 10:34:48;;;;;;;22.42;4.63;;;25.40;33.90;;;;;;5041717;28;20085;-63
2022/06/01 10:37:30;;;;;;;18.55;4.97;;;25.30;34.00;;;;;;5042499;28;20501;-64
2022/06/01 10:39:56;;;;;;;13.13;4.68;;;25.40;33.60;;;;;;5040206;28;20089;-64
2022/06/01 10:45:39;;;;;;;19.27;4.57;;;25.40;32.80;;;;;;5039862;28;20130;-64
2022/06/01 10:48:14;;;;;;;19.88;4.28;;;25.40;32.40;;;;;;5040340;28;20072;-64
2022/06/01 10:51:02;;;;;;;27.05;4.57;;;25.40;31.90;;;;;;5037842;28;20089;-64
2022/06/01 10:53:52;;;;;;;15.23;4.13;;;25.40;31.70;;;;;;5037564;28;20494;-64
2022/06/01 10:56:21;;;;;;;21.23;4.25;;;25.40;31.50;;;;;;5037250;28;20485;-65
2022/06/01 10:58:49;;;;;;;21.85;4.72;;;25.40;31.30;;;;;;5040814;28;20145;-64
2022/06/01 11:01:27;;;;;;;17.27;3.92;;;25.40;31.30;;;;;;5040525;28;20121;-64
2022/06/01 11:04:25;;;;;;;15.48;4.13;;;25.50;31.20;;;;;;5040888;28;20079;-64
2022/06/01 11:07:16;;;;;;;21.08;4.70;;;25.40;31.00;;;;;;5063567;22;20132;-64
2022/06/01 11:10:12;;;;;;;17.88;4.70;;;25.40;31.20;;;;;;5043936;28;20080;-64
2022/06/01 11:13:15;;;;;;;18.73;4.40;;;25.40;31.40;;;;;;5043276;28;20157;-63
2022/06/01 11:16:00;;;;;;;20.23;4.97;;;25.40;31.30;;;;;;5061836;28;20111;-64
2022/06/01 11:18:48;;;;;;;28.33;5.03;;;25.30;31.60;;;;;;5063185;28;20091;-65
2022/06/01 11:21:52;;;;;;;24.80;5.60;;;25.20;31.80;;;;;;5061889;28;20080;-65
2022/06/01 11:25:04;;;;;;;20.75;4.95;;;25.10;32.00;;;;;;5047195;28;20072;-64
2022/06/01 11:27:46;;;;;;;20.08;4.82;;;25.20;32.30;;;;;;5041328;28;20215;-65
2022/06/01 11:30:22;;;;;;;22.80;5.15;;;25.20;32.90;;;;;;5046573;28;20081;-64
2022/06/01 11:33:01;;;;;;;15.82;4.82;;;25.20;33.10;;;;;;5052528;28;20064;-64
2022/06/01 11:35:55;;;;;;;15.38;4.90;;;25.20;33.50;;;;;;5046761;28;20069;-65
2022/06/01 11:38:46;;;;;;;16.15;4.75;;;25.20;33.70;;;;;;5045244;28;20101;-64
2022/06/01 11:41:28;;;;;;;17.92;4.80;;;25.20;34.00;;;;;;5046359;28;20152;-65
2022/06/01 11:44:00;;;;;;;22.25;4.82;;;25.20;34.90;;;;;;5045492;28;20080;-63
2022/06/01 11:46:44;;;;;;;21.08;5.28;;;25.20;34.50;;;;;;5046974;28;20091;-64
2022/06/01 11:49:23;;;;;;;21.42;4.47;;;25.20;34.70;;;;;;5046340;28;20068;-66
2022/06/01 11:51:50;;;;;;;18.08;5.18;;;25.20;34.70;;;;;;5046416;28;20073;-64
2022/06/01 11:54:54;;;;;;;27.42;5.72;;;25.20;34.80;;;;;;5047790;28;20069;-64
2022/06/01 11:57:40;;;;;;;25.85;6.13;;;25.20;34.70;;;;;;4991084;28;20096;-64
2022/06/01 12:00:20;;;;;;;19.63;5.18;;;25.20;34.70;;;;;;4988872;28;20588;-65
2022/06/01 12:02:50;;;;;;;18.88;5.57;;;25.20;34.60;;;;;;4993314;28;20159;-65
2022/06/01 12:05:40;;;;;;;21.35;5.65;;;25.20;34.60;;;;;;4993334;28;20579;-65
2022/06/01 12:08:30;;;;;;;20.30;5.65;;;25.20;34.70;;;;;;4993116;28;20086;-65
2022/06/01 12:11:00;;;;;;;26.40;5.75;;;25.10;34.70;;;;;;4992359;28;20085;-65
2022/06/01 12:13:51;;;;;;;25.73;5.85;;;25.20;34.90;;;;;;4991467;28;20516;-65
2022/06/01 12:16:22;;;;;;;20.73;5.25;;;25.10;35.00;;;;;;4997378;28;20101;-67
2022/06/01 12:19:30;;;;;;;21.08;6.35;;;25.00;35.30;;;;;;5009614;28;20530;-66
2022/06/01 12:22:03;;;;;;;22.80;5.90;;;24.90;35.60;;;;;;5008045;28;20160;-66
2022/06/01 12:30:31;;;;;;;27.33;5.88;;;24.90;36.70;;;;;;5009482;28;20148;-66
2022/06/01 12:33:00;;;;;;;20.23;5.33;;;24.90;37.00;;;;;;5000674;28;20102;-65
2022/06/01 12:35:31;;;;;;;21.05;5.95;;;24.80;37.30;;;;;;5049664;28;20888;-65
2022/06/01 12:38:31;;;;;;;18.73;4.85;;;24.70;37.50;;;;;;5051815;28;20441;-65
2022/06/01 12:41:13;;;;;;;25.05;5.53;;;24.70;37.30;;;;;;5041200;28;20080;-66
2022/06/01 12:43:47;;;;;;;19.77;5.40;;;24.70;37.10;;;;;;5050605;28;20133;-66
2022/06/01 12:46:26;;;;;;;27.50;5.38;;;24.60;36.80;;;;;;5033769;28;20167;-64
2022/06/01 12:49:12;;;;;;;26.52;5.82;;;24.60;37.00;;;;;;5047644;28;20171;-63
2022/06/01 12:51:42;;;;;;;25.27;5.72;;;24.50;36.50;;;;;;5051180;28;20135;-65
2022/06/01 12:54:08;;;;;;;20.67;5.75;;;24.50;36.90;;;;;;5051240;28;20076;-65
2022/06/01 12:56:37;;;;;;;23.98;5.40;;;24.50;36.50;;;;;;5054439;28;20079;-66
2022/06/01 12:59:14;;;;;;;27.42;5.70;;;24.50;36.40;;;;;;5052456;28;20127;-65
2022/06/01 13:01:40;;;;;;;22.27;5.30;;;24.50;37.80;;;;;;5033291;28;20159;-64
2022/06/01 13:04:07;;;;;;;27.40;5.57;;;24.60;38.10;;;;;;5034010;28;20069;-67
2022/06/01 13:06:39;;;;;;;22.60;5.28;;;24.50;38.20;;;;;;5049473;28;20116;-64
2022/06/01 13:09:12;;;;;;;55.50;31.17;;;24.50;38.60;;;;;;5050239;28;20073;-64
2022/06/01 13:11:39;;;;;;;44.08;24.10;;;24.50;39.10;;;;;;5048416;28;20526;-64
2022/06/01 13:14:09;;;;;;;63.80;39.83;;;24.50;39.20;;;;;;5048678;28;20091;-64
2022/06/01 13:16:47;;;;;;;29.35;15.13;;;24.50;39.60;;;;;;5052149;28;20121;-64
2022/06/01 13:19:29;;;;;;;36.10;12.15;;;24.40;39.50;;;;;;5048307;28;20083;-64
2022/06/01 13:22:14;;;;;;;31.98;6.97;;;24.40;39.50;;;;;;5047756;28;20087;-65
2022/06/01 13:24:51;;;;;;;23.25;5.45;;;24.50;39.10;;;;;;5048371;28;20073;-64
2022/06/01 13:27:18;;;;;;;23.83;5.43;;;24.40;37.80;;;;;;5049549;28;20065;-65
2022/06/01 13:29:48;;;;;;;28.45;5.57;;;24.50;37.50;;;;;;5064687;28;20441;-66
2022/06/01 13:32:17;;;;;;;23.80;5.00;;;24.50;37.80;;;;;;5048201;28;20099;-64
2022/06/01 13:34:53;;;;;;;26.00;4.95;;;24.50;38.30;;;;;;5049568;28;20078;-63
2022/06/01 13:37:30;;;;;;;24.50;5.47;;;24.50;37.70;;;;;;5047561;28;20097;-64
2022/06/01 13:40:08;;;;;;;22.17;4.95;;;24.60;37.20;;;;;;5047868;28;20814;-64